sensor_id;sensor_type;location;lat;lon;timestamp;temperature;humidity
28524;DHT22;15734;50.904;6.922;2023-08-08T00:01:22;13.80;99.90
28524;DHT22;15734;50.904;6.922;2023-08-08T00:03:47;13.80;99.90
28524;DHT22;15734;50.904;6.922;2023-08-08T00:06:13;13.80;99.90
28524;DHT22;15734;50.904;6.922;2023-08-08T00:08:39;13.80;99.90
28524;DHT22;15734;50.904;6.922;2023-08-08T00:11:04;13.80;99.90
28524;DHT22;15734;50.904;6.922;2023-08-08T00:13:30;13.70;99.90
28524;DHT22;15734;50.904;6.922;2023-08-08T00:15:56;13.80;99.90
28524;DHT22;15734;50.904;6.922;2023-08-08T00:18:21;13.80;99.90
28524;DHT22;15734;50.904;6.922;2023-08-08T00:20:47;13.80;99.90
28524;DHT22;15734;50.904;6.922;2023-08-08T00:23:12;13.70;99.90
28524;DHT22;15734;50.904;6.922;2023-08-08T00:25:38;13.70;99.90
28524;DHT22;15734;50.904;6.922;2023-08-08T00:28:03;13.70;99.90
28524;DHT22;15734;50.904;6.922;2023-08-08T00:30:29;13.80;99.90
28524;DHT22;15734;50.904;6.922;2023-08-08T00:32:55;13.70;99.90
28524;DHT22;15734;50.904;6.922;2023-08-08T00:35:20;13.70;99.90
28524;DHT22;15734;50.904;6.922;2023-08-08T00:37:45;13.60;99.90
28524;DHT22;15734;50.904;6.922;2023-08-08T00:40:11;13.60;99.90
28524;DHT22;15734;50.904;6.922;2023-08-08T00:42:36;13.50;99.90
28524;DHT22;15734;50.904;6.922;2023-08-08T00:45:02;13.30;99.90
28524;DHT22;15734;50.904;6.922;2023-08-08T00:47:31;13.20;99.90
28524;DHT22;15734;50.904;6.922;2023-08-08T00:49:57;13.10;99.90
28524;DHT22;15734;50.904;6.922;2023-08-08T00:52:23;13.10;99.90
28524;DHT22;15734;50.904;6.922;2023-08-08T00:54:48;13.00;99.90
28524;DHT22;15734;50.904;6.922;2023-08-08T00:57:14;13.00;99.90
28524;DHT22;15734;50.904;6.922;2023-08-08T00:59:39;12.90;99.90
28524;DHT22;15734;50.904;6.922;2023-08-08T01:02:05;12.80;99.90
28524;DHT22;15734;50.904;6.922;2023-08-08T01:04:31;12.70;99.90
28524;DHT22;15734;50.904;6.922;2023-08-08T01:07:33;12.80;99.90
28524;DHT22;15734;50.904;6.922;2023-08-08T01:10:07;12.70;99.90
28524;DHT22;15734;50.904;6.922;2023-08-08T01:12:50;12.60;99.90
28524;DHT22;15734;50.904;6.922;2023-08-08T01:15:17;12.50;99.90
28524;DHT22;15734;50.904;6.922;2023-08-08T01:17:44;12.50;99.90
28524;DHT22;15734;50.904;6.922;2023-08-08T01:20:12;12.50;99.90
28524;DHT22;15734;50.904;6.922;2023-08-08T01:22:55;12.40;99.90
28524;DHT22;15734;50.904;6.922;2023-08-08T01:25:22;12.40;99.90
28524;DHT22;15734;50.904;6.922;2023-08-08T01:27:48;12.30;99.90
28524;DHT22;15734;50.904;6.922;2023-08-08T01:30:13;12.30;99.90
28524;DHT22;15734;50.904;6.922;2023-08-08T01:32:40;12.30;99.90
28524;DHT22;15734;50.904;6.922;2023-08-08T01:35:06;12.20;99.90
28524;DHT22;15734;50.904;6.922;2023-08-08T01:37:36;12.20;99.90
28524;DHT22;15734;50.904;6.922;2023-08-08T01:40:04;12.20;99.90
28524;DHT22;15734;50.904;6.922;2023-08-08T01:42:31;12.10;99.90
28524;DHT22;15734;50.904;6.922;2023-08-08T01:44:57;12.10;99.90
28524;DHT22;15734;50.904;6.922;2023-08-08T01:47:24;12.20;99.90
28524;DHT22;15734;50.904;6.922;2023-08-08T01:49:49;12.10;99.90
28524;DHT22;15734;50.904;6.922;2023-08-08T01:52:15;12.10;99.90
28524;DHT22;15734;50.904;6.922;2023-08-08T01:54:41;12.30;99.90
28524;DHT22;15734;50.904;6.922;2023-08-08T01:57:08;12.30;99.90
28524;DHT22;15734;50.904;6.922;2023-08-08T01:59:33;12.30;99.90
28524;DHT22;15734;50.904;6.922;2023-08-08T02:01:59;12.30;99.90
28524;DHT22;15734;50.904;6.922;2023-08-08T02:04:24;12.40;99.90
28524;DHT22;15734;50.904;6.922;2023-08-08T02:06:50;12.40;99.90
28524;DHT22;15734;50.904;6.922;2023-08-08T02:09:15;12.40;99.90
28524;DHT22;15734;50.904;6.922;2023-08-08T02:11:41;12.50;99.90
28524;DHT22;15734;50.904;6.922;2023-08-08T02:14:07;12.50;99.90
28524;DHT22;15734;50.904;6.922;2023-08-08T02:16:33;12.50;99.90
28524;DHT22;15734;50.904;6.922;2023-08-08T02:19:00;12.50;99.90
28524;DHT22;15734;50.904;6.922;2023-08-08T02:21:25;12.50;99.90
28524;DHT22;15734;50.904;6.922;2023-08-08T02:23:51;12.60;99.90
28524;DHT22;15734;50.904;6.922;2023-08-08T02:26:16;12.60;99.90
28524;DHT22;15734;50.904;6.922;2023-08-08T02:28:42;12.70;99.90
28524;DHT22;15734;50.904;6.922;2023-08-08T02:31:08;12.60;99.90
28524;DHT22;15734;50.904;6.922;2023-08-08T02:33:34;12.70;99.90
28524;DHT22;15734;50.904;6.922;2023-08-08T02:35:59;12.70;99.90
28524;DHT22;15734;50.904;6.922;2023-08-08T02:38:25;12.70;99.90
28524;DHT22;15734;50.904;6.922;2023-08-08T02:40:50;12.70;99.90
28524;DHT22;15734;50.904;6.922;2023-08-08T02:43:16;12.70;99.90
28524;DHT22;15734;50.904;6.922;2023-08-08T02:45:42;12.80;99.90
28524;DHT22;15734;50.904;6.922;2023-08-08T02:48:07;12.80;99.90
28524;DHT22;15734;50.904;6.922;2023-08-08T02:50:33;12.90;99.90
28524;DHT22;15734;50.904;6.922;2023-08-08T02:52:58;13.00;99.90
28524;DHT22;15734;50.904;6.922;2023-08-08T02:55:24;13.00;99.90
28524;DHT22;15734;50.904;6.922;2023-08-08T02:57:49;13.00;99.90
28524;DHT22;15734;50.904;6.922;2023-08-08T03:00:15;13.00;99.90
28524;DHT22;15734;50.904;6.922;2023-08-08T03:02:41;13.00;99.90
28524;DHT22;15734;50.904;6.922;2023-08-08T03:05:06;13.00;99.90
28524;DHT22;15734;50.904;6.922;2023-08-08T03:07:32;13.10;99.90
28524;DHT22;15734;50.904;6.922;2023-08-08T03:09:58;13.20;99.90
28524;DHT22;15734;50.904;6.922;2023-08-08T03:12:23;13.20;99.90
28524;DHT22;15734;50.904;6.922;2023-08-08T03:14:49;13.30;99.90
28524;DHT22;15734;50.904;6.922;2023-08-08T03:17:14;13.30;99.90
28524;DHT22;15734;50.904;6.922;2023-08-08T03:19:40;13.30;99.90
28524;DHT22;15734;50.904;6.922;2023-08-08T03:22:05;13.20;99.90
28524;DHT22;15734;50.904;6.922;2023-08-08T03:24:31;13.20;99.90
28524;DHT22;15734;50.904;6.922;2023-08-08T03:26:56;13.20;99.90
28524;DHT22;15734;50.904;6.922;2023-08-08T03:29:22;13.30;99.90
28524;DHT22;15734;50.904;6.922;2023-08-08T03:31:47;13.30;99.90
28524;DHT22;15734;50.904;6.922;2023-08-08T03:34:13;13.30;99.90
28524;DHT22;15734;50.904;6.922;2023-08-08T03:36:38;13.40;99.90
28524;DHT22;15734;50.904;6.922;2023-08-08T03:39:04;13.30;99.90
28524;DHT22;15734;50.904;6.922;2023-08-08T03:41:29;13.40;99.90
28524;DHT22;15734;50.904;6.922;2023-08-08T03:43:55;13.40;99.90
28524;DHT22;15734;50.904;6.922;2023-08-08T03:46:22;13.50;99.90
28524;DHT22;15734;50.904;6.922;2023-08-08T03:48:47;13.40;99.90
28524;DHT22;15734;50.904;6.922;2023-08-08T03:51:13;13.40;99.90
28524;DHT22;15734;50.904;6.922;2023-08-08T03:53:39;13.40;99.90
28524;DHT22;15734;50.904;6.922;2023-08-08T03:56:04;13.40;99.90
28524;DHT22;15734;50.904;6.922;2023-08-08T03:58:30;13.40;99.90
28524;DHT22;15734;50.904;6.922;2023-08-08T04:00:55;13.40;99.90
28524;DHT22;15734;50.904;6.922;2023-08-08T04:03:22;13.30;99.90
28524;DHT22;15734;50.904;6.922;2023-08-08T04:05:47;13.30;99.90
28524;DHT22;15734;50.904;6.922;2023-08-08T04:08:14;13.40;99.90
28524;DHT22;15734;50.904;6.922;2023-08-08T04:10:39;13.40;99.90
28524;DHT22;15734;50.904;6.922;2023-08-08T04:13:05;13.40;99.90
28524;DHT22;15734;50.904;6.922;2023-08-08T04:15:30;13.40;99.90
28524;DHT22;15734;50.904;6.922;2023-08-08T04:17:56;13.40;99.90
28524;DHT22;15734;50.904;6.922;2023-08-08T04:20:22;13.40;99.90
28524;DHT22;15734;50.904;6.922;2023-08-08T04:22:48;13.40;99.90
28524;DHT22;15734;50.904;6.922;2023-08-08T04:25:14;13.40;99.90
28524;DHT22;15734;50.904;6.922;2023-08-08T04:27:40;13.50;99.90
28524;DHT22;15734;50.904;6.922;2023-08-08T04:30:06;13.50;99.90
28524;DHT22;15734;50.904;6.922;2023-08-08T04:32:32;13.50;99.90
28524;DHT22;15734;50.904;6.922;2023-08-08T04:34:57;13.60;99.90
28524;DHT22;15734;50.904;6.922;2023-08-08T04:37:23;13.50;99.90
28524;DHT22;15734;50.904;6.922;2023-08-08T04:39:49;13.50;99.90
28524;DHT22;15734;50.904;6.922;2023-08-08T04:42:14;13.50;99.90
28524;DHT22;15734;50.904;6.922;2023-08-08T04:44:40;13.50;99.90
28524;DHT22;15734;50.904;6.922;2023-08-08T04:47:05;13.50;99.90
28524;DHT22;15734;50.904;6.922;2023-08-08T04:49:31;13.50;99.90
28524;DHT22;15734;50.904;6.922;2023-08-08T04:51:56;13.50;99.90
28524;DHT22;15734;50.904;6.922;2023-08-08T04:54:22;13.50;99.90
28524;DHT22;15734;50.904;6.922;2023-08-08T04:56:47;13.50;99.90
28524;DHT22;15734;50.904;6.922;2023-08-08T04:59:13;13.60;99.90
28524;DHT22;15734;50.904;6.922;2023-08-08T05:01:38;13.60;99.90
28524;DHT22;15734;50.904;6.922;2023-08-08T05:04:04;13.70;99.90
28524;DHT22;15734;50.904;6.922;2023-08-08T05:06:30;13.70;99.90
28524;DHT22;15734;50.904;6.922;2023-08-08T05:08:56;13.70;99.90
28524;DHT22;15734;50.904;6.922;2023-08-08T05:11:22;13.70;99.90
28524;DHT22;15734;50.904;6.922;2023-08-08T05:13:48;13.80;99.90
28524;DHT22;15734;50.904;6.922;2023-08-08T05:16:14;13.90;99.90
28524;DHT22;15734;50.904;6.922;2023-08-08T05:18:39;13.90;99.90
28524;DHT22;15734;50.904;6.922;2023-08-08T05:21:06;14.00;99.90
28524;DHT22;15734;50.904;6.922;2023-08-08T05:23:32;14.10;99.90
28524;DHT22;15734;50.904;6.922;2023-08-08T05:25:58;14.10;99.90
28524;DHT22;15734;50.904;6.922;2023-08-08T05:28:23;14.10;99.90
28524;DHT22;15734;50.904;6.922;2023-08-08T05:30:49;14.30;99.90
28524;DHT22;15734;50.904;6.922;2023-08-08T05:33:15;14.40;99.90
28524;DHT22;15734;50.904;6.922;2023-08-08T05:35:40;14.40;99.90
28524;DHT22;15734;50.904;6.922;2023-08-08T05:38:06;14.40;99.90
28524;DHT22;15734;50.904;6.922;2023-08-08T05:40:34;14.40;99.90
28524;DHT22;15734;50.904;6.922;2023-08-08T05:43:02;14.40;99.90
28524;DHT22;15734;50.904;6.922;2023-08-08T05:45:27;14.40;99.90
28524;DHT22;15734;50.904;6.922;2023-08-08T05:47:53;14.50;99.90
28524;DHT22;15734;50.904;6.922;2023-08-08T05:50:20;14.50;99.90
28524;DHT22;15734;50.904;6.922;2023-08-08T05:52:45;14.50;99.90
28524;DHT22;15734;50.904;6.922;2023-08-08T05:55:11;14.60;99.90
28524;DHT22;15734;50.904;6.922;2023-08-08T05:57:36;14.60;99.90
28524;DHT22;15734;50.904;6.922;2023-08-08T06:00:03;14.60;99.90
28524;DHT22;15734;50.904;6.922;2023-08-08T06:02:29;14.70;99.90
28524;DHT22;15734;50.904;6.922;2023-08-08T06:04:54;14.70;99.90
28524;DHT22;15734;50.904;6.922;2023-08-08T06:07:20;14.80;99.90
28524;DHT22;15734;50.904;6.922;2023-08-08T06:09:46;14.90;99.90
28524;DHT22;15734;50.904;6.922;2023-08-08T06:12:12;14.90;99.90
28524;DHT22;15734;50.904;6.922;2023-08-08T06:14:37;15.00;99.90
28524;DHT22;15734;50.904;6.922;2023-08-08T06:17:03;15.00;99.90
28524;DHT22;15734;50.904;6.922;2023-08-08T06:19:28;15.10;99.90
28524;DHT22;15734;50.904;6.922;2023-08-08T06:21:54;15.10;99.90
28524;DHT22;15734;50.904;6.922;2023-08-08T06:24:20;15.20;99.90
28524;DHT22;15734;50.904;6.922;2023-08-08T06:26:45;15.20;99.90
28524;DHT22;15734;50.904;6.922;2023-08-08T06:29:11;15.30;99.90
28524;DHT22;15734;50.904;6.922;2023-08-08T06:31:37;15.40;99.90
28524;DHT22;15734;50.904;6.922;2023-08-08T06:34:03;15.50;99.90
28524;DHT22;15734;50.904;6.922;2023-08-08T06:36:29;15.60;99.90
28524;DHT22;15734;50.904;6.922;2023-08-08T06:38:54;15.70;99.90
28524;DHT22;15734;50.904;6.922;2023-08-08T06:41:20;15.80;99.90
28524;DHT22;15734;50.904;6.922;2023-08-08T06:43:45;15.80;99.90
28524;DHT22;15734;50.904;6.922;2023-08-08T06:46:11;15.80;99.90
28524;DHT22;15734;50.904;6.922;2023-08-08T06:48:36;15.80;99.90
28524;DHT22;15734;50.904;6.922;2023-08-08T06:51:02;15.80;99.90
28524;DHT22;15734;50.904;6.922;2023-08-08T06:53:27;15.80;99.90
28524;DHT22;15734;50.904;6.922;2023-08-08T06:55:53;15.80;99.90
28524;DHT22;15734;50.904;6.922;2023-08-08T06:58:18;15.90;99.90
28524;DHT22;15734;50.904;6.922;2023-08-08T07:00:44;16.00;99.90
28524;DHT22;15734;50.904;6.922;2023-08-08T07:03:10;16.10;99.90
28524;DHT22;15734;50.904;6.922;2023-08-08T07:05:35;16.10;99.90
28524;DHT22;15734;50.904;6.922;2023-08-08T07:08:03;16.10;99.90
28524;DHT22;15734;50.904;6.922;2023-08-08T07:10:28;16.10;99.90
28524;DHT22;15734;50.904;6.922;2023-08-08T07:12:54;16.20;99.90
28524;DHT22;15734;50.904;6.922;2023-08-08T07:15:20;16.20;99.90
28524;DHT22;15734;50.904;6.922;2023-08-08T07:17:45;16.20;99.90
28524;DHT22;15734;50.904;6.922;2023-08-08T07:20:11;16.20;99.90
28524;DHT22;15734;50.904;6.922;2023-08-08T07:22:39;16.30;99.90
28524;DHT22;15734;50.904;6.922;2023-08-08T07:25:05;16.30;99.90
28524;DHT22;15734;50.904;6.922;2023-08-08T07:27:31;16.40;99.90
28524;DHT22;15734;50.904;6.922;2023-08-08T07:29:56;16.40;99.90
28524;DHT22;15734;50.904;6.922;2023-08-08T07:32:22;16.40;99.90
28524;DHT22;15734;50.904;6.922;2023-08-08T07:34:47;16.50;99.90
28524;DHT22;15734;50.904;6.922;2023-08-08T07:37:14;16.50;99.90
28524;DHT22;15734;50.904;6.922;2023-08-08T07:39:40;16.40;99.90
28524;DHT22;15734;50.904;6.922;2023-08-08T07:42:05;16.40;99.90
28524;DHT22;15734;50.904;6.922;2023-08-08T07:44:31;16.50;99.90
28524;DHT22;15734;50.904;6.922;2023-08-08T07:46:59;16.60;99.90
28524;DHT22;15734;50.904;6.922;2023-08-08T07:49:25;16.60;99.90
28524;DHT22;15734;50.904;6.922;2023-08-08T07:51:50;16.50;99.90
28524;DHT22;15734;50.904;6.922;2023-08-08T07:54:16;16.50;99.90
28524;DHT22;15734;50.904;6.922;2023-08-08T07:56:41;16.50;99.90
28524;DHT22;15734;50.904;6.922;2023-08-08T07:59:08;16.60;99.90
28524;DHT22;15734;50.904;6.922;2023-08-08T08:01:34;16.70;99.90
28524;DHT22;15734;50.904;6.922;2023-08-08T08:04:00;16.80;99.90
28524;DHT22;15734;50.904;6.922;2023-08-08T08:06:25;16.90;99.90
28524;DHT22;15734;50.904;6.922;2023-08-08T08:08:51;17.10;99.90
28524;DHT22;15734;50.904;6.922;2023-08-08T08:11:16;17.20;99.90
28524;DHT22;15734;50.904;6.922;2023-08-08T08:13:42;17.20;99.90
28524;DHT22;15734;50.904;6.922;2023-08-08T08:16:08;17.30;99.90
28524;DHT22;15734;50.904;6.922;2023-08-08T08:18:34;17.40;99.90
28524;DHT22;15734;50.904;6.922;2023-08-08T08:21:00;17.40;99.90
28524;DHT22;15734;50.904;6.922;2023-08-08T08:23:25;17.60;99.90
28524;DHT22;15734;50.904;6.922;2023-08-08T08:25:51;17.70;99.90
28524;DHT22;15734;50.904;6.922;2023-08-08T08:28:17;17.60;99.90
28524;DHT22;15734;50.904;6.922;2023-08-08T08:30:43;17.60;99.90
28524;DHT22;15734;50.904;6.922;2023-08-08T08:33:09;17.30;99.90
28524;DHT22;15734;50.904;6.922;2023-08-08T08:35:35;17.30;99.90
28524;DHT22;15734;50.904;6.922;2023-08-08T08:38:00;17.40;99.90
28524;DHT22;15734;50.904;6.922;2023-08-08T08:40:27;17.50;99.90
28524;DHT22;15734;50.904;6.922;2023-08-08T08:42:53;17.70;99.90
28524;DHT22;15734;50.904;6.922;2023-08-08T08:45:20;17.80;99.90
28524;DHT22;15734;50.904;6.922;2023-08-08T08:47:49;17.80;99.90
28524;DHT22;15734;50.904;6.922;2023-08-08T08:50:18;17.80;99.90
28524;DHT22;15734;50.904;6.922;2023-08-08T08:52:44;17.60;99.90
28524;DHT22;15734;50.904;6.922;2023-08-08T08:55:10;17.60;99.90
28524;DHT22;15734;50.904;6.922;2023-08-08T08:57:36;17.60;99.90
28524;DHT22;15734;50.904;6.922;2023-08-08T09:00:03;17.70;99.90
28524;DHT22;15734;50.904;6.922;2023-08-08T09:02:29;17.60;99.90
28524;DHT22;15734;50.904;6.922;2023-08-08T09:04:54;17.70;99.90
28524;DHT22;15734;50.904;6.922;2023-08-08T09:07:23;17.70;99.90
28524;DHT22;15734;50.904;6.922;2023-08-08T09:09:51;17.70;99.90
28524;DHT22;15734;50.904;6.922;2023-08-08T09:12:17;17.80;99.90
28524;DHT22;15734;50.904;6.922;2023-08-08T09:14:43;18.00;99.90
28524;DHT22;15734;50.904;6.922;2023-08-08T09:17:13;18.10;99.90
28524;DHT22;15734;50.904;6.922;2023-08-08T09:19:43;18.10;99.90
28524;DHT22;15734;50.904;6.922;2023-08-08T09:22:09;18.10;99.90
28524;DHT22;15734;50.904;6.922;2023-08-08T09:24:41;17.90;99.90
28524;DHT22;15734;50.904;6.922;2023-08-08T09:27:08;18.10;99.90
28524;DHT22;15734;50.904;6.922;2023-08-08T09:29:34;18.00;99.90
28524;DHT22;15734;50.904;6.922;2023-08-08T09:32:03;17.80;99.90
28524;DHT22;15734;50.904;6.922;2023-08-08T09:34:29;18.00;99.90
28524;DHT22;15734;50.904;6.922;2023-08-08T09:36:55;18.00;99.90
28524;DHT22;15734;50.904;6.922;2023-08-08T09:39:20;18.10;99.90
28524;DHT22;15734;50.904;6.922;2023-08-08T09:41:46;18.20;99.90
28524;DHT22;15734;50.904;6.922;2023-08-08T09:44:12;18.30;99.90
28524;DHT22;15734;50.904;6.922;2023-08-08T09:46:39;18.40;99.90
28524;DHT22;15734;50.904;6.922;2023-08-08T09:49:05;18.50;99.90
28524;DHT22;15734;50.904;6.922;2023-08-08T09:51:31;18.70;99.90
28524;DHT22;15734;50.904;6.922;2023-08-08T09:53:59;18.80;99.90
28524;DHT22;15734;50.904;6.922;2023-08-08T09:56:26;18.90;99.90
28524;DHT22;15734;50.904;6.922;2023-08-08T09:58:52;18.90;99.90
28524;DHT22;15734;50.904;6.922;2023-08-08T10:01:20;18.70;99.90
28524;DHT22;15734;50.904;6.922;2023-08-08T10:03:45;18.70;99.90
28524;DHT22;15734;50.904;6.922;2023-08-08T10:06:12;18.40;99.90
28524;DHT22;15734;50.904;6.922;2023-08-08T10:08:38;18.40;99.90
28524;DHT22;15734;50.904;6.922;2023-08-08T10:11:05;18.40;99.90
28524;DHT22;15734;50.904;6.922;2023-08-08T10:13:35;18.50;99.90
28524;DHT22;15734;50.904;6.922;2023-08-08T10:16:07;18.60;99.90
28524;DHT22;15734;50.904;6.922;2023-08-08T10:18:33;18.70;99.90
28524;DHT22;15734;50.904;6.922;2023-08-08T10:20:59;18.70;99.90
28524;DHT22;15734;50.904;6.922;2023-08-08T10:23:25;18.80;99.90
28524;DHT22;15734;50.904;6.922;2023-08-08T10:25:51;18.60;99.90
28524;DHT22;15734;50.904;6.922;2023-08-08T10:28:20;18.60;99.90
28524;DHT22;15734;50.904;6.922;2023-08-08T10:30:46;18.50;99.90
28524;DHT22;15734;50.904;6.922;2023-08-08T10:33:41;18.50;99.90
28524;DHT22;15734;50.904;6.922;2023-08-08T10:36:08;18.80;99.90
28524;DHT22;15734;50.904;6.922;2023-08-08T10:38:46;18.90;99.90
28524;DHT22;15734;50.904;6.922;2023-08-08T10:41:20;19.10;99.90
28524;DHT22;15734;50.904;6.922;2023-08-08T10:43:57;19.20;99.90
28524;DHT22;15734;50.904;6.922;2023-08-08T10:46:27;19.30;99.90
28524;DHT22;15734;50.904;6.922;2023-08-08T10:48:58;19.10;99.90
28524;DHT22;15734;50.904;6.922;2023-08-08T10:51:36;19.10;99.90
28524;DHT22;15734;50.904;6.922;2023-08-08T10:56:37;19.00;99.90
28524;DHT22;15734;50.904;6.922;2023-08-08T10:59:13;19.00;99.90
28524;DHT22;15734;50.904;6.922;2023-08-08T11:01:40;19.10;99.90
28524;DHT22;15734;50.904;6.922;2023-08-08T11:04:07;19.10;99.90
28524;DHT22;15734;50.904;6.922;2023-08-08T11:06:33;19.00;99.90
28524;DHT22;15734;50.904;6.922;2023-08-08T11:09:01;18.90;99.90
28524;DHT22;15734;50.904;6.922;2023-08-08T11:11:26;19.00;99.90
28524;DHT22;15734;50.904;6.922;2023-08-08T11:13:52;18.90;99.90
28524;DHT22;15734;50.904;6.922;2023-08-08T11:16:18;19.00;99.90
28524;DHT22;15734;50.904;6.922;2023-08-08T11:18:45;18.90;99.90
28524;DHT22;15734;50.904;6.922;2023-08-08T11:21:10;18.90;99.90
28524;DHT22;15734;50.904;6.922;2023-08-08T11:23:37;19.00;99.90
28524;DHT22;15734;50.904;6.922;2023-08-08T11:26:04;18.90;99.90
28524;DHT22;15734;50.904;6.922;2023-08-08T11:28:29;19.00;99.90
28524;DHT22;15734;50.904;6.922;2023-08-08T11:30:55;18.90;99.90
28524;DHT22;15734;50.904;6.922;2023-08-08T11:33:21;19.10;99.90
28524;DHT22;15734;50.904;6.922;2023-08-08T11:35:47;19.20;99.90
28524;DHT22;15734;50.904;6.922;2023-08-08T11:38:15;19.30;99.90
28524;DHT22;15734;50.904;6.922;2023-08-08T11:40:41;19.50;99.90
28524;DHT22;15734;50.904;6.922;2023-08-08T11:43:07;19.70;99.90
28524;DHT22;15734;50.904;6.922;2023-08-08T11:45:33;19.70;99.90
28524;DHT22;15734;50.904;6.922;2023-08-08T11:47:59;20.20;99.90
28524;DHT22;15734;50.904;6.922;2023-08-08T11:50:25;20.00;99.90
28524;DHT22;15734;50.904;6.922;2023-08-08T11:52:54;20.20;99.90
28524;DHT22;15734;50.904;6.922;2023-08-08T11:55:20;20.30;99.90
28524;DHT22;15734;50.904;6.922;2023-08-08T11:57:49;20.10;99.90
28524;DHT22;15734;50.904;6.922;2023-08-08T12:00:15;20.20;99.90
28524;DHT22;15734;50.904;6.922;2023-08-08T12:02:45;19.90;99.90
28524;DHT22;15734;50.904;6.922;2023-08-08T12:05:13;19.80;99.90
28524;DHT22;15734;50.904;6.922;2023-08-08T12:07:40;19.60;99.90
28524;DHT22;15734;50.904;6.922;2023-08-08T12:10:14;19.40;99.90
28524;DHT22;15734;50.904;6.922;2023-08-08T12:12:40;19.50;99.90
28524;DHT22;15734;50.904;6.922;2023-08-08T12:15:09;19.50;99.90
28524;DHT22;15734;50.904;6.922;2023-08-08T12:17:36;19.60;99.90
28524;DHT22;15734;50.904;6.922;2023-08-08T12:20:06;19.40;99.90
28524;DHT22;15734;50.904;6.922;2023-08-08T12:22:32;19.60;99.90
28524;DHT22;15734;50.904;6.922;2023-08-08T12:24:58;19.80;99.90
28524;DHT22;15734;50.904;6.922;2023-08-08T12:27:23;19.80;99.90
28524;DHT22;15734;50.904;6.922;2023-08-08T12:29:49;19.80;99.90
28524;DHT22;15734;50.904;6.922;2023-08-08T12:32:14;19.60;99.90
28524;DHT22;15734;50.904;6.922;2023-08-08T12:34:40;19.60;99.90
28524;DHT22;15734;50.904;6.922;2023-08-08T12:37:05;19.50;99.90
28524;DHT22;15734;50.904;6.922;2023-08-08T12:39:31;19.50;99.90
28524;DHT22;15734;50.904;6.922;2023-08-08T12:41:57;19.30;99.90
28524;DHT22;15734;50.904;6.922;2023-08-08T12:44:22;19.40;99.90
28524;DHT22;15734;50.904;6.922;2023-08-08T12:46:48;19.40;99.90
28524;DHT22;15734;50.904;6.922;2023-08-08T12:49:14;19.40;99.90
28524;DHT22;15734;50.904;6.922;2023-08-08T12:51:40;19.40;99.90
28524;DHT22;15734;50.904;6.922;2023-08-08T12:54:05;19.50;99.90
28524;DHT22;15734;50.904;6.922;2023-08-08T12:56:31;19.70;99.90
28524;DHT22;15734;50.904;6.922;2023-08-08T12:58:56;20.10;99.90
28524;DHT22;15734;50.904;6.922;2023-08-08T13:01:22;20.80;99.90
28524;DHT22;15734;50.904;6.922;2023-08-08T13:03:47;21.40;99.90
28524;DHT22;15734;50.904;6.922;2023-08-08T13:06:13;21.50;99.90
28524;DHT22;15734;50.904;6.922;2023-08-08T13:08:39;21.40;99.90
28524;DHT22;15734;50.904;6.922;2023-08-08T13:11:04;20.60;99.90
28524;DHT22;15734;50.904;6.922;2023-08-08T13:13:30;20.30;99.90
28524;DHT22;15734;50.904;6.922;2023-08-08T13:15:56;20.10;99.90
28524;DHT22;15734;50.904;6.922;2023-08-08T13:18:22;19.60;99.90
28524;DHT22;15734;50.904;6.922;2023-08-08T13:20:47;19.40;99.90
28524;DHT22;15734;50.904;6.922;2023-08-08T13:23:13;19.40;99.90
28524;DHT22;15734;50.904;6.922;2023-08-08T13:25:39;19.40;99.90
28524;DHT22;15734;50.904;6.922;2023-08-08T13:28:06;19.50;99.90
28524;DHT22;15734;50.904;6.922;2023-08-08T13:30:32;19.40;99.90
28524;DHT22;15734;50.904;6.922;2023-08-08T13:32:59;19.40;99.90
28524;DHT22;15734;50.904;6.922;2023-08-08T13:35:25;19.30;99.90
28524;DHT22;15734;50.904;6.922;2023-08-08T13:37:51;19.10;99.90
28524;DHT22;15734;50.904;6.922;2023-08-08T13:40:20;19.10;99.90
28524;DHT22;15734;50.904;6.922;2023-08-08T13:42:46;19.10;99.90
28524;DHT22;15734;50.904;6.922;2023-08-08T13:45:14;19.10;99.90
28524;DHT22;15734;50.904;6.922;2023-08-08T13:47:40;19.30;99.90
28524;DHT22;15734;50.904;6.922;2023-08-08T13:50:06;19.30;99.90
28524;DHT22;15734;50.904;6.922;2023-08-08T13:52:31;19.40;99.90
28524;DHT22;15734;50.904;6.922;2023-08-08T13:54:58;19.30;99.90
28524;DHT22;15734;50.904;6.922;2023-08-08T13:57:24;19.40;99.90
28524;DHT22;15734;50.904;6.922;2023-08-08T13:59:49;19.20;99.90
28524;DHT22;15734;50.904;6.922;2023-08-08T14:02:15;19.10;99.90
28524;DHT22;15734;50.904;6.922;2023-08-08T14:04:46;19.00;99.90
28524;DHT22;15734;50.904;6.922;2023-08-08T14:07:11;19.00;99.90
28524;DHT22;15734;50.904;6.922;2023-08-08T14:09:37;19.20;99.90
28524;DHT22;15734;50.904;6.922;2023-08-08T14:12:03;19.40;99.90
28524;DHT22;15734;50.904;6.922;2023-08-08T14:14:29;19.40;99.90
28524;DHT22;15734;50.904;6.922;2023-08-08T14:16:54;19.50;99.90
28524;DHT22;15734;50.904;6.922;2023-08-08T14:19:20;19.20;99.90
28524;DHT22;15734;50.904;6.922;2023-08-08T14:21:45;19.30;99.90
28524;DHT22;15734;50.904;6.922;2023-08-08T14:24:11;19.30;99.90
28524;DHT22;15734;50.904;6.922;2023-08-08T14:26:37;19.40;99.90
28524;DHT22;15734;50.904;6.922;2023-08-08T14:29:02;19.40;99.90
28524;DHT22;15734;50.904;6.922;2023-08-08T14:31:28;19.40;99.90
28524;DHT22;15734;50.904;6.922;2023-08-08T14:33:54;19.60;99.90
28524;DHT22;15734;50.904;6.922;2023-08-08T14:36:19;19.70;99.90
28524;DHT22;15734;50.904;6.922;2023-08-08T14:38:45;19.60;99.90
28524;DHT22;15734;50.904;6.922;2023-08-08T14:41:10;19.90;99.90
28524;DHT22;15734;50.904;6.922;2023-08-08T14:43:36;20.50;99.90
28524;DHT22;15734;50.904;6.922;2023-08-08T14:46:01;20.90;99.90
28524;DHT22;15734;50.904;6.922;2023-08-08T14:48:27;21.10;99.90
28524;DHT22;15734;50.904;6.922;2023-08-08T14:50:53;21.20;99.90
28524;DHT22;15734;50.904;6.922;2023-08-08T14:53:18;20.70;99.90
28524;DHT22;15734;50.904;6.922;2023-08-08T14:55:44;21.10;99.90
28524;DHT22;15734;50.904;6.922;2023-08-08T14:58:09;21.30;99.90
28524;DHT22;15734;50.904;6.922;2023-08-08T15:00:35;21.40;99.90
28524;DHT22;15734;50.904;6.922;2023-08-08T15:03:00;20.40;99.90
28524;DHT22;15734;50.904;6.922;2023-08-08T15:05:26;20.70;99.90
28524;DHT22;15734;50.904;6.922;2023-08-08T15:07:51;20.70;99.90
28524;DHT22;15734;50.904;6.922;2023-08-08T15:10:17;20.90;99.90
28524;DHT22;15734;50.904;6.922;2023-08-08T15:12:42;21.10;99.90
28524;DHT22;15734;50.904;6.922;2023-08-08T15:15:08;21.10;99.90
28524;DHT22;15734;50.904;6.922;2023-08-08T15:17:34;20.80;99.90
28524;DHT22;15734;50.904;6.922;2023-08-08T15:20:00;20.70;99.90
28524;DHT22;15734;50.904;6.922;2023-08-08T15:22:26;20.60;99.90
28524;DHT22;15734;50.904;6.922;2023-08-08T15:24:52;20.50;99.90
28524;DHT22;15734;50.904;6.922;2023-08-08T15:27:17;20.90;99.90